Time;durP1;ratioP1;P1;durP2;ratioP2;P2;SDS_P1;SDS_P2;PMS_P1;PMS_P2;Temp;Humidity;BMP_temperature;BMP_pressure;BME280_temperature;BME280_humidity;BME280_pressure;Samples;Min_cycle;Max_cycle;Signal;HPM_P1;HPM_P2
2021/11/20 00:01:49;;;;;;;12.65;8.00;;;;;;;13.36;72.66;102999.31;5038505;28;20083;-75
2021/11/20 00:04:16;;;;;;;12.55;8.05;;;;;;;13.36;72.90;103002.81;5034891;28;20068;-75
2021/11/20 00:06:45;;;;;;;10.80;7.97;;;;;;;13.37;72.57;102994.13;5029833;28;20052;-76
2021/11/20 00:09:13;;;;;;;12.02;8.18;;;;;;;13.36;72.65;102974.00;5039633;28;20618;-75
2021/11/20 00:11:40;;;;;;;12.65;7.85;;;;;;;13.37;72.67;102964.44;5033668;28;20090;-75
2021/11/20 00:14:10;;;;;;;11.15;7.68;;;;;;;13.36;72.56;102976.63;5038864;28;20044;-75
2021/11/20 00:16:36;;;;;;;13.63;8.40;;;;;;;13.37;72.47;102977.53;5032830;28;20040;-75
2021/11/20 00:19:02;;;;;;;10.02;7.75;;;;;;;13.38;72.64;102967.09;5050822;28;20036;-75
2021/11/20 00:21:32;;;;;;;16.85;8.05;;;;;;;13.32;72.86;102960.75;5055590;28;20070;-75
2021/11/20 00:24:00;;;;;;;15.18;8.32;;;;;;;13.29;72.99;102974.66;5053360;28;20047;-75
2021/11/20 00:26:30;;;;;;;11.70;8.20;;;;;;;13.30;73.05;102975.53;5041631;28;20579;-75
2021/11/20 00:31:25;;;;;;;11.52;7.70;;;;;;;13.34;72.69;102961.72;5031005;28;20059;-76
2021/11/20 00:33:50;;;;;;;13.32;8.75;;;;;;;13.36;72.34;102963.53;5053764;28;20042;-76
2021/11/20 00:36:16;;;;;;;11.90;8.05;;;;;;;13.36;71.93;102970.50;5040065;28;20048;-76
2021/11/20 00:38:43;;;;;;;12.98;8.45;;;;;;;13.35;71.80;102968.75;5037262;28;20032;-75
2021/11/20 00:41:13;;;;;;;12.95;8.25;;;;;;;13.33;71.96;102968.69;5046905;28;20074;-75
2021/11/20 00:43:44;;;;;;;12.30;8.65;;;;;;;13.30;71.91;102965.94;5052124;28;20477;-75
2021/11/20 00:46:11;;;;;;;12.18;8.35;;;;;;;13.32;71.95;102964.28;5039898;28;20345;-70
2021/11/20 00:48:37;;;;;;;13.55;9.15;;;;;;;13.27;72.01;102957.09;5027381;28;20601;-76
2021/11/20 00:51:06;;;;;;;11.15;8.35;;;;;;;13.28;71.84;102953.63;5031265;28;20600;-76
2021/11/20 00:53:31;;;;;;;13.43;9.43;;;;;;;13.26;71.78;102963.16;5051035;28;20036;-75
2021/11/20 00:55:58;;;;;;;14.70;9.60;;;;;;;13.27;71.70;102954.47;5044410;28;20074;-76
2021/11/20 00:58:25;;;;;;;14.75;9.30;;;;;;;13.28;71.71;102954.53;5036001;28;20062;-76
2021/11/20 01:00:54;;;;;;;13.82;9.45;;;;;;;13.25;71.25;102956.13;5043511;28;20459;-74
2021/11/20 01:03:20;;;;;;;14.15;9.60;;;;;;;13.26;70.98;102957.91;5036762;28;20068;-75
2021/11/20 01:05:45;;;;;;;15.35;9.38;;;;;;;13.23;71.57;102953.50;4985367;28;1315320;-75
2021/11/20 01:08:12;;;;;;;19.98;10.30;;;;;;;13.23;71.46;102955.22;5043674;28;20056;-70
2021/11/20 01:10:41;;;;;;;18.58;10.32;;;;;;;13.25;71.65;102957.03;5050018;28;20028;-75
2021/11/20 01:13:07;;;;;;;20.83;10.75;;;;;;;13.25;71.49;102953.50;5053878;28;20059;-75
2021/11/20 01:15:37;;;;;;;21.20;10.65;;;;;;;13.25;70.95;102951.78;5052005;28;20066;-75
2021/11/20 01:18:05;;;;;;;20.60;10.27;;;;;;;13.28;70.97;102948.41;5017848;28;20080;-75
2021/11/20 01:20:31;;;;;;;25.02;11.50;;;;;;;13.25;70.67;102950.91;5046693;28;20413;-75
2021/11/20 01:22:57;;;;;;;20.27;11.50;;;;;;;13.27;70.53;102952.75;5054351;28;20036;-75
2021/11/20 01:25:22;;;;;;;22.75;11.18;;;;;;;13.23;71.22;102953.50;5017982;28;20127;-75
2021/11/20 01:27:48;;;;;;;20.23;11.18;;;;;;;13.22;70.65;102945.56;5055450;28;20047;-76
2021/11/20 01:30:14;;;;;;;21.35;11.13;;;;;;;13.22;70.87;102948.19;5045189;28;20039;-75
2021/11/20 01:32:40;;;;;;;19.63;11.10;;;;;;;13.23;70.62;102948.25;5057763;28;20052;-75
2021/11/20 01:35:07;;;;;;;17.75;11.25;;;;;;;13.22;70.67;102950.81;5045224;28;20138;-75
2021/11/20 01:37:34;;;;;;;19.17;11.80;;;;;;;13.21;70.81;102942.06;5047762;28;20980;-75
2021/11/20 01:39:59;;;;;;;19.15;11.10;;;;;;;13.12;71.30;102941.72;5038845;28;20072;-75
2021/11/20 01:42:31;;;;;;;19.25;11.38;;;;;;;13.19;70.82;102940.19;5038479;28;20570;-76
2021/11/20 01:45:04;;;;;;;19.85;11.23;;;;;;;13.16;70.86;102942.72;5050392;28;20588;-76
2021/11/20 01:47:37;;;;;;;18.23;11.38;;;;;;;13.17;70.80;102941.91;5044266;28;20132;-76
2021/11/20 01:50:30;;;;;;;18.88;11.30;;;;;;;13.17;70.71;102936.66;5045451;28;20036;-75
2021/11/20 01:53:36;;;;;;;22.15;11.20;;;;;;;13.16;70.68;102930.53;5037721;28;20058;-76
2021/11/20 01:56:07;;;;;;;28.77;12.55;;;;;;;13.15;70.45;102938.31;5001400;28;20041;-76
2021/11/20 01:58:45;;;;;;;23.48;12.63;;;;;;;13.18;70.37;102926.22;5030089;28;20054;-75
2021/11/20 02:01:22;;;;;;;25.77;12.98;;;;;;;13.15;70.46;102920.00;5051590;28;20052;-76
2021/11/20 02:04:19;;;;;;;24.90;13.07;;;;;;;13.18;70.47;102920.97;5030882;28;20043;-76
2021/11/20 02:06:54;;;;;;;30.80;13.57;;;;;;;13.11;70.31;102912.84;5041506;28;20040;-76
2021/11/20 02:09:33;;;;;;;25.02;13.10;;;;;;;13.15;70.30;102922.59;5029700;28;20455;-75
2021/11/20 02:12:14;;;;;;;26.77;13.07;;;;;;;13.15;69.95;102917.38;5053619;28;20117;-75
2021/11/20 02:14:41;;;;;;;20.85;11.73;;;;;;;13.17;70.11;102920.94;5046332;28;20043;-74
2021/11/20 02:17:13;;;;;;;22.55;12.68;;;;;;;13.19;69.54;102917.53;5050664;28;20081;-75
2021/11/20 02:19:43;;;;;;;20.70;12.05;;;;;;;13.19;69.49;102921.88;5055860;28;20063;-75
2021/11/20 02:22:17;;;;;;;22.55;12.52;;;;;;;13.17;69.51;102915.72;5042818;28;20087;-74
2021/11/20 02:24:42;;;;;;;25.20;13.20;;;;;;;13.12;69.56;102919.84;5037003;28;20120;-75
2021/11/20 02:27:09;;;;;;;22.30;12.25;;;;;;;13.12;69.86;102912.91;5051143;28;20065;-75
2021/11/20 02:29:47;;;;;;;22.55;12.93;;;;;;;13.14;69.94;102915.59;5051587;28;20040;-76
2021/11/20 02:32:19;;;;;;;21.08;12.38;;;;;;;13.11;69.71;102912.84;5043936;28;20059;-75
2021/11/20 02:34:47;;;;;;;21.27;12.35;;;;;;;13.15;69.37;102912.13;5047946;28;20097;-75
2021/11/20 02:37:12;;;;;;;20.95;12.00;;;;;;;13.12;69.65;102901.50;5049060;28;20079;-76
2021/11/20 02:39:39;;;;;;;19.98;12.05;;;;;;;13.12;69.64;102901.50;5049516;28;20081;-75
2021/11/20 02:42:14;;;;;;;19.33;11.30;;;;;;;13.11;69.79;102903.25;5052812;28;20155;-75
2021/11/20 02:44:40;;;;;;;19.05;11.65;;;;;;;13.11;69.35;102903.25;5045102;28;20047;-77
2021/11/20 02:47:18;;;;;;;20.80;11.57;;;;;;;13.02;70.00;102892.44;5051182;28;20040;-75
2021/11/20 02:49:43;;;;;;;22.30;12.77;;;;;;;13.08;69.47;102894.38;5027231;28;20055;-74
2021/11/20 02:52:09;;;;;;;19.30;12.20;;;;;;;13.09;69.19;102886.59;5044769;28;20040;-75
2021/11/20 02:54:35;;;;;;;20.52;12.35;;;;;;;13.10;69.32;102884.88;5050409;28;20043;-75
2021/11/20 02:57:16;;;;;;;19.48;11.13;;;;;;;13.10;69.17;102890.09;5034237;28;20044;-75
2021/11/20 02:59:42;;;;;;;18.25;11.30;;;;;;;13.12;68.94;102888.41;5028109;28;20032;-75
2021/11/20 03:02:09;;;;;;;20.48;11.57;;;;;;;13.13;68.83;102877.13;5047761;28;20079;-74
2021/11/20 03:04:34;;;;;;;18.25;11.55;;;;;;;13.13;68.83;102875.41;5046739;28;20041;-75
2021/11/20 03:06:59;;;;;;;18.48;10.98;;;;;;;13.08;69.37;102869.09;5050479;28;20055;-75
2021/11/20 03:09:28;;;;;;;18.58;11.00;;;;;;;13.01;69.49;102872.31;5048484;28;20547;-75
2021/11/20 03:11:54;;;;;;;20.00;11.68;;;;;;;13.05;69.43;102866.38;5046572;28;20036;-77
2021/11/20 03:14:21;;;;;;;18.48;11.10;;;;;;;13.07;69.30;102871.66;5031474;28;20078;-74
2021/11/20 03:16:55;;;;;;;18.67;11.35;;;;;;;13.05;69.33;102869.00;5041503;28;20453;-74
2021/11/20 03:19:22;;;;;;;17.55;10.40;;;;;;;13.04;69.70;102875.06;5043520;28;20044;-75
2021/11/20 03:21:53;;;;;;;17.77;11.02;;;;;;;13.04;69.16;102868.94;5051445;28;20265;-75
2021/11/20 03:24:20;;;;;;;19.05;10.55;;;;;;;13.05;69.17;102866.38;5037584;28;20139;-76
2021/11/20 03:26:46;;;;;;;16.20;10.70;;;;;;;13.04;68.86;102861.97;5049890;28;20031;-75
2021/11/20 03:29:12;;;;;;;16.13;10.63;;;;;;;13.02;68.95;102858.41;5048547;28;20054;-74
2021/11/20 03:31:37;;;;;;;15.98;9.77;;;;;;;13.05;69.14;102849.78;5049578;28;20047;-75
2021/11/20 03:34:04;;;;;;;16.40;9.70;;;;;;;13.11;68.57;102858.75;5046245;28;20512;-76
2021/11/20 03:36:31;;;;;;;17.20;10.32;;;;;;;13.06;69.15;102855.03;5035740;28;22440;-75
2021/11/20 03:38:56;;;;;;;17.30;10.48;;;;;;;13.07;68.77;102853.31;5056243;28;20052;-74
2021/11/20 03:41:22;;;;;;;15.27;9.93;;;;;;;13.04;69.18;102853.22;5047513;28;20134;-75
2021/11/20 03:43:47;;;;;;;16.70;10.65;;;;;;;13.01;69.81;102849.66;5044246;28;20079;-75
2021/11/20 03:46:12;;;;;;;16.42;10.75;;;;;;;13.01;69.14;102849.66;5021866;28;20044;-75
2021/11/20 03:48:38;;;;;;;18.45;11.05;;;;;;;13.04;68.87;102837.53;5040002;28;20385;-75
2021/11/20 03:51:04;;;;;;;17.35;11.40;;;;;;;13.02;68.81;102837.47;5044889;28;20083;-75
2021/11/20 03:53:29;;;;;;;16.65;10.45;;;;;;;13.02;68.63;102842.69;5051379;28;20143;-76
2021/11/20 03:55:55;;;;;;;16.67;10.55;;;;;;;12.98;69.73;102840.81;5049050;28;20068;-75
2021/11/20 03:58:21;;;;;;;17.63;11.02;;;;;;;13.00;69.44;102839.13;5042589;28;20044;-75
2021/11/20 04:00:53;;;;;;;16.95;11.35;;;;;;;13.01;69.06;102836.56;5051123;28;20175;-75
2021/11/20 04:03:22;;;;;;;20.35;12.07;;;;;;;12.98;68.79;102831.25;5050239;28;20033;-75
2021/11/20 04:05:50;;;;;;;18.40;11.50;;;;;;;12.98;69.40;102831.25;5052547;28;20131;-74
2021/11/20 04:08:15;;;;;;;18.80;12.52;;;;;;;13.01;68.35;102831.31;5041216;28;20050;-74
2021/11/20 04:10:41;;;;;;;17.10;12.15;;;;;;;13.02;68.65;102843.59;5046487;28;20035;-75
2021/11/20 04:13:06;;;;;;;16.83;11.38;;;;;;;13.01;68.96;102840.91;5049112;28;20046;-76
2021/11/20 04:15:31;;;;;;;21.38;13.10;;;;;;;12.97;68.96;102832.06;5046106;28;20133;-75
2021/11/20 04:17:57;;;;;;;19.95;13.63;;;;;;;12.99;68.58;102835.59;5050944;28;20193;-75
2021/11/20 04:20:23;;;;;;;17.75;12.82;;;;;;;13.01;68.49;102835.66;5024609;28;20140;-76
2021/11/20 04:22:49;;;;;;;20.13;13.48;;;;;;;12.99;68.30;102829.50;5036220;28;20078;-76
2021/11/20 04:25:17;;;;;;;20.90;14.35;;;;;;;12.96;68.73;102832.00;5039890;28;20055;-76
2021/11/20 04:27:42;;;;;;;19.67;13.93;;;;;;;12.96;68.84;102832.91;5039425;28;20081;-76
2021/11/20 04:30:10;;;;;;;21.25;14.25;;;;;;;12.95;68.90;102824.97;5034818;28;20567;-76
2021/11/20 04:32:36;;;;;;;23.05;14.73;;;;;;;12.95;68.82;102819.75;5034435;28;20048;-76
2021/11/20 04:35:07;;;;;;;22.60;15.23;;;;;;;12.95;68.21;102819.75;5056357;28;20039;-76
2021/11/20 04:37:33;;;;;;;21.88;15.07;;;;;;;12.90;68.48;102816.09;5054146;28;20040;-76
2021/11/20 04:39:58;;;;;;;23.15;15.27;;;;;;;12.94;68.15;102813.63;5053395;28;21107;-75
2021/11/20 04:42:24;;;;;;;23.00;16.05;;;;;;;12.97;67.95;102818.09;5043754;28;20051;-76
2021/11/20 04:44:50;;;;;;;23.90;15.95;;;;;;;12.92;68.56;102814.44;5054959;28;20388;-76
2021/11/20 04:47:15;;;;;;;23.52;15.82;;;;;;;12.95;68.26;102811.91;5052390;28;20052;-76
2021/11/20 04:49:40;;;;;;;24.25;15.48;;;;;;;12.94;68.29;102818.84;5032046;28;20427;-75
2021/11/20 04:52:07;;;;;;;25.13;16.65;;;;;;;12.94;68.40;102817.97;5036571;28;20585;-75
2021/11/20 04:54:32;;;;;;;25.10;17.23;;;;;;;12.93;67.93;102818.78;5050090;28;20574;-76
2021/11/20 04:56:58;;;;;;;23.73;16.23;;;;;;;12.94;67.94;102820.59;5051221;28;20139;-76
2021/11/20 04:59:24;;;;;;;26.15;17.55;;;;;;;12.93;68.63;102822.31;5050669;28;20131;-76
2021/11/20 05:01:49;;;;;;;28.10;17.63;;;;;;;12.92;68.90;102817.03;5052906;28;20439;-76
2021/11/20 05:04:15;;;;;;;24.95;17.55;;;;;;;12.94;68.13;102813.63;5024621;28;20440;-76
2021/11/20 05:06:40;;;;;;;28.33;18.27;;;;;;;12.97;67.65;102816.38;5030168;28;20060;-77
2021/11/20 05:09:06;;;;;;;29.77;18.33;;;;;;;12.88;68.29;102816.03;5027974;28;20463;-75
2021/11/20 05:11:31;;;;;;;28.10;18.08;;;;;;;12.96;68.46;102819.81;5028167;28;20029;-75
2021/11/20 05:13:58;;;;;;;28.55;18.50;;;;;;;12.93;68.62;102819.69;5031307;28;20047;-75
2021/11/20 05:16:24;;;;;;;31.02;19.38;;;;;;;12.91;68.12;102817.88;5025087;28;20044;-75
2021/11/20 05:18:50;;;;;;;28.60;19.08;;;;;;;12.90;68.62;102806.50;5032078;28;20121;-75
2021/11/20 05:21:17;;;;;;;30.50;19.55;;;;;;;12.94;68.41;102807.50;5032485;28;20524;-75
2021/11/20 05:23:43;;;;;;;33.42;19.23;;;;;;;12.93;68.74;102808.31;5032328;28;20050;-75
2021/11/20 05:26:09;;;;;;;30.45;19.30;;;;;;;12.90;68.51;102798.66;5027454;28;20045;-75
2021/11/20 05:28:35;;;;;;;31.52;20.05;;;;;;;12.91;67.86;102789.06;5028828;28;20083;-75
2021/11/20 05:31:00;;;;;;;31.88;20.42;;;;;;;12.89;68.39;102794.25;5033326;28;20413;-76
2021/11/20 05:33:47;;;;;;;31.40;20.10;;;;;;;12.89;68.54;102796.88;5024495;28;20415;-75
2021/11/20 05:36:14;;;;;;;32.58;20.45;;;;;;;12.85;69.06;102787.16;5023453;28;20044;-75
2021/11/20 05:38:39;;;;;;;34.25;20.80;;;;;;;12.84;68.86;102787.97;5026057;28;20241;-74
2021/11/20 05:41:06;;;;;;;35.80;20.98;;;;;;;12.90;68.39;102787.28;5031266;28;20603;-74
2021/11/20 05:43:32;;;;;;;35.15;21.85;;;;;;;12.86;68.48;102775.84;5032749;28;20055;-75
2021/11/20 05:46:01;;;;;;;33.53;22.17;;;;;;;12.84;68.12;102769.66;5028228;28;20041;-76
2021/11/20 05:48:26;;;;;;;34.40;22.02;;;;;;;12.85;67.72;102781.91;5015490;28;20189;-75
2021/11/20 05:50:52;;;;;;;34.50;21.67;;;;;;;12.84;68.13;102774.00;5030700;28;20399;-75
2021/11/20 05:53:21;;;;;;;37.78;22.98;;;;;;;12.82;68.16;102766.09;5025327;28;20127;-75
2021/11/20 05:55:48;;;;;;;38.67;23.48;;;;;;;12.85;68.19;102775.78;5026289;28;20024;-75
2021/11/20 05:58:14;;;;;;;36.90;23.85;;;;;;;12.85;67.96;102767.94;5021801;28;20045;-75
2021/11/20 06:00:42;;;;;;;34.78;23.15;;;;;;;12.82;68.39;102763.47;5030604;28;20033;-75
2021/11/20 06:03:09;;;;;;;40.78;24.85;;;;;;;12.83;68.25;102756.50;5034767;28;20436;-75
2021/11/20 06:05:35;;;;;;;42.75;24.58;;;;;;;12.83;68.35;102759.13;5023144;28;20048;-75
2021/11/20 06:08:01;;;;;;;38.67;24.50;;;;;;;12.81;68.34;102755.56;5040353;28;20487;-76
2021/11/20 06:10:26;;;;;;;40.95;24.90;;;;;;;12.81;68.44;102751.22;5040188;28;20632;-75
2021/11/20 06:12:52;;;;;;;38.80;25.15;;;;;;;12.80;68.52;102741.59;5032948;28;20048;-75
2021/11/20 06:15:17;;;;;;;40.25;25.25;;;;;;;12.79;69.03;102739.81;5045975;28;20046;-73
2021/11/20 06:17:43;;;;;;;42.10;26.50;;;;;;;12.76;68.75;102734.47;5050212;28;20622;-75
2021/11/20 06:20:10;;;;;;;41.40;26.15;;;;;;;12.80;68.54;102732.84;5042124;28;20915;-75
2021/11/20 06:22:35;;;;;;;39.20;25.63;;;;;;;12.82;68.54;102736.41;5052222;28;20043;-74
2021/11/20 06:25:01;;;;;;;39.70;25.85;;;;;;;12.79;68.06;102731.97;5053687;28;20027;-75
2021/11/20 06:27:26;;;;;;;40.75;26.25;;;;;;;12.79;68.62;102731.97;5052775;28;20032;-74
2021/11/20 06:29:52;;;;;;;38.95;26.48;;;;;;;12.79;68.31;102728.47;5046275;28;20503;-75
2021/11/20 06:32:17;;;;;;;40.17;25.55;;;;;;;12.77;68.27;102728.41;5047850;28;20540;-74
2021/11/20 06:34:43;;;;;;;41.70;25.55;;;;;;;12.79;68.07;102731.97;5023813;28;20083;-74
2021/11/20 06:37:08;;;;;;;39.05;25.40;;;;;;;12.81;68.28;102727.66;5045279;28;20618;-75
2021/11/20 06:39:35;;;;;;;42.60;25.58;;;;;;;12.80;68.32;102730.25;5052782;28;20067;-74
2021/11/20 06:42:04;;;;;;;36.70;24.08;;;;;;;12.81;67.93;102734.63;5044288;28;20185;-76
2021/11/20 06:44:34;;;;;;;37.22;24.02;;;;;;;12.82;67.92;102742.53;5044795;28;20102;-75
2021/11/20 06:46:59;;;;;;;38.03;24.30;;;;;;;12.81;68.05;102732.88;5043782;28;20746;-75
2021/11/20 06:49:25;;;;;;;37.72;22.77;;;;;;;12.81;67.70;102732.88;5036478;28;20127;-75
2021/11/20 06:51:50;;;;;;;37.65;22.70;;;;;;;12.76;68.43;102728.34;5047035;28;20146;-75
2021/11/20 06:54:17;;;;;;;32.95;21.75;;;;;;;12.82;67.98;102734.66;5039236;28;20044;-75
2021/11/20 06:56:43;;;;;;;32.45;20.85;;;;;;;12.81;67.64;102740.75;5037656;28;20194;-76
2021/11/20 07:00:25;;;;;;;36.00;21.27;;;;;;;12.76;68.56;102741.41;5044427;28;20040;-75
2021/11/20 07:02:02;;;;;;;31.38;19.52;;;;;;;12.81;68.16;102725.03;5049633;28;20385;-75
2021/11/20 07:04:28;;;;;;;31.65;20.52;;;;;;;12.77;68.35;102723.16;5036579;28;20510;-76
2021/11/20 07:06:56;;;;;;;34.28;20.95;;;;;;;12.79;68.17;102720.59;5051633;27;20488;-77
2021/11/20 07:09:22;;;;;;;31.40;19.10;;;;;;;12.81;68.00;102718.91;5031007;28;20477;-75
2021/11/20 07:11:48;;;;;;;34.45;20.23;;;;;;;12.77;68.34;102717.94;5033888;28;20507;-76
2021/11/20 07:14:13;;;;;;;33.05;18.85;;;;;;;12.80;68.67;102730.25;5011665;28;20044;-76
2021/11/20 07:16:40;;;;;;;30.55;18.67;;;;;;;12.82;68.79;102726.81;5024901;28;20109;-75
2021/11/20 07:19:06;;;;;;;31.83;19.63;;;;;;;12.76;68.53;102726.63;5032696;28;20507;-76
2021/11/20 07:21:32;;;;;;;33.25;19.48;;;;;;;12.78;68.43;102724.06;5025859;28;20052;-75
2021/11/20 07:24:00;;;;;;;32.88;19.75;;;;;;;12.75;68.76;102721.31;5030669;28;20131;-76
2021/11/20 07:26:27;;;;;;;32.95;19.70;;;;;;;12.78;68.75;102721.44;5021939;28;20400;-75
2021/11/20 07:28:54;;;;;;;31.90;18.52;;;;;;;12.83;68.60;102714.63;5032849;28;20044;-75
2021/11/20 07:31:20;;;;;;;33.30;19.83;;;;;;;12.85;68.53;102718.19;5027423;28;20051;-75
2021/11/20 07:33:46;;;;;;;30.98;19.05;;;;;;;12.84;68.37;102708.56;5032771;28;20067;-75
2021/11/20 07:36:11;;;;;;;32.85;19.27;;;;;;;12.82;68.47;102710.22;5008763;28;20044;-75
2021/11/20 07:38:41;;;;;;;30.83;18.95;;;;;;;12.82;68.22;102703.25;5027513;28;20114;-76
2021/11/20 07:41:08;;;;;;;32.00;18.00;;;;;;;12.85;68.27;102698.16;5032336;28;20072;-76
2021/11/20 07:43:33;;;;;;;30.77;18.63;;;;;;;12.88;68.00;102705.19;5027515;28;20507;-77
2021/11/20 07:45:59;;;;;;;31.25;18.98;;;;;;;12.83;68.42;102697.19;5034994;28;20056;-77
2021/11/20 07:48:26;;;;;;;29.60;18.25;;;;;;;12.89;68.06;102699.13;5011386;28;20075;-75
2021/11/20 07:50:53;;;;;;;32.60;18.98;;;;;;;12.91;68.35;102708.81;5022895;28;20583;-75
2021/11/20 07:53:19;;;;;;;30.40;18.80;;;;;;;12.94;67.90;102706.28;5024694;28;20533;-77
2021/11/20 07:55:46;;;;;;;32.97;19.83;;;;;;;12.95;68.60;102710.69;5024616;28;20051;-77
2021/11/20 07:58:12;;;;;;;31.15;19.70;;;;;;;13.01;67.78;102710.00;5014618;28;20045;-75
2021/11/20 08:00:39;;;;;;;32.58;20.13;;;;;;;12.97;68.51;102701.16;5026370;28;20045;-75
2021/11/20 08:03:05;;;;;;;33.20;20.10;;;;;;;13.02;68.21;102704.81;5027870;28;20059;-77
2021/11/20 08:05:31;;;;;;;35.50;20.10;;;;;;;12.94;68.66;102697.53;5026355;28;20040;-75
2021/11/20 08:07:57;;;;;;;36.28;21.30;;;;;;;12.94;68.46;102693.19;5026282;28;20630;-76
2021/11/20 08:10:24;;;;;;;34.42;20.85;;;;;;;13.00;68.29;102690.78;5031337;28;21278;-75
2021/11/20 08:12:50;;;;;;;34.08;20.98;;;;;;;12.97;68.12;102685.47;5030826;28;20048;-76
2021/11/20 08:15:16;;;;;;;33.55;20.63;;;;;;;13.05;68.18;102682.19;5050124;28;20720;-76
2021/11/20 08:17:41;;;;;;;35.55;21.48;;;;;;;13.04;68.29;102672.56;5032453;28;20044;-75
2021/11/20 08:20:09;;;;;;;34.00;20.83;;;;;;;13.09;68.14;102678.81;5033168;28;20085;-75
2021/11/20 08:22:35;;;;;;;37.33;21.55;;;;;;;13.11;67.99;102674.53;5027735;28;20031;-75
2021/11/20 08:25:01;;;;;;;33.92;21.13;;;;;;;13.15;67.90;102668.59;5030226;28;20378;-75
2021/11/20 08:27:26;;;;;;;33.13;20.83;;;;;;;13.22;67.88;102665.31;5031902;28;20366;-75
2021/11/20 08:29:52;;;;;;;36.80;21.17;;;;;;;13.24;67.62;102658.38;5042464;28;20562;-75
2021/11/20 08:32:17;;;;;;;36.80;21.98;;;;;;;13.25;67.42;102661.03;5035165;28;20074;-76
2021/11/20 08:34:45;;;;;;;39.42;21.75;;;;;;;13.25;67.75;102655.81;5051873;28;20059;-76
2021/11/20 08:37:10;;;;;;;35.78;21.75;;;;;;;13.30;67.65;102655.94;5044664;28;20452;-76
2021/11/20 08:39:37;;;;;;;41.75;22.15;;;;;;;13.32;67.90;102659.50;5051560;28;21610;-76
2021/11/20 08:42:05;;;;;;;36.45;21.90;;;;;;;13.29;67.94;102654.19;5048038;28;21647;-76
2021/11/20 08:44:31;;;;;;;37.30;22.10;;;;;;;13.30;67.99;102653.31;5025779;28;22065;-76
2021/11/20 08:46:56;;;;;;;41.15;22.05;;;;;;;13.32;68.09;102652.53;5029801;28;20469;-75
2021/11/20 08:49:22;;;;;;;39.60;21.85;;;;;;;13.36;67.62;102643.91;5030297;28;20485;-78
2021/11/20 08:51:49;;;;;;;37.65;21.95;;;;;;;13.40;67.83;102642.31;5029245;28;20366;-75
2021/11/20 08:54:15;;;;;;;36.92;21.73;;;;;;;13.32;67.85;102651.66;5032912;28;20036;-76
2021/11/20 08:56:43;;;;;;;38.47;21.55;;;;;;;13.45;67.70;102643.31;5060978;28;20043;-76
2021/11/20 08:59:11;;;;;;;38.80;21.85;;;;;;;13.48;67.68;102639.91;5022231;28;20139;-77
2021/11/20 09:01:46;;;;;;;38.72;22.05;;;;;;;13.46;67.84;102639.84;5046784;28;20048;-76
2021/11/20 09:04:17;;;;;;;37.85;21.27;;;;;;;13.51;67.77;102647.84;5020259;28;20032;-76
2021/11/20 09:07:33;;;;;;;41.10;21.90;;;;;;;13.50;67.79;102646.06;5031059;28;20047;-77
2021/11/20 09:10:01;;;;;;;;;;;;;;;13.49;68.08;102631.19;5002608;28;20044;-75
2021/11/20 09:12:38;;;;;;;39.05;20.95;;;;;;;13.47;67.94;102633.78;5030485;28;19980;-77
2021/11/20 09:15:16;;;;;;;41.70;22.15;;;;;;;13.51;68.17;102634.75;5042545;28;20585;-78
2021/11/20 09:17:43;;;;;;;41.17;21.65;;;;;;;13.40;68.40;102621.34;5048355;28;20047;-76
2021/11/20 09:20:09;;;;;;;38.47;21.13;;;;;;;13.41;68.59;102623.13;5048320;28;20558;-76
2021/11/20 09:22:35;;;;;;;41.70;21.73;;;;;;;13.47;68.30;102619.78;5043947;28;20445;-77
2021/11/20 09:25:00;;;;;;;41.35;22.38;;;;;;;13.36;68.87;102622.06;5057174;28;20095;-78
2021/11/20 09:27:26;;;;;;;40.53;22.27;;;;;;;13.39;68.37;102619.56;5034115;28;20097;-77
2021/11/20 09:29:51;;;;;;;46.00;23.23;;;;;;;13.44;68.51;102615.34;5046364;28;20716;-77
2021/11/20 09:32:17;;;;;;;42.30;22.52;;;;;;;13.48;68.43;102613.72;5041226;28;20470;-76
2021/11/20 09:34:42;;;;;;;44.38;22.20;;;;;;;13.52;68.11;102615.56;5046344;28;20116;-75
2021/11/20 09:37:08;;;;;;;40.92;21.38;;;;;;;13.51;67.88;102614.69;5043857;28;20036;-79
2021/11/20 09:39:41;;;;;;;42.97;22.75;;;;;;;13.54;68.14;102616.50;5049841;28;20054;-76
2021/11/20 09:42:38;;;;;;;39.78;21.30;;;;;;;13.53;68.15;102613.00;5028005;28;20055;-75
2021/11/20 09:45:34;;;;;;;42.40;22.33;;;;;;;13.56;68.50;102618.31;5021123;28;20078;-75
2021/11/20 09:48:09;;;;;;;40.47;21.25;;;;;;;13.55;68.47;102619.16;5034305;28;20609;-78
2021/11/20 09:51:10;;;;;;;40.90;21.13;;;;;;;13.51;68.67;102616.41;5046466;28;20048;-77
2021/11/20 09:53:35;;;;;;;39.67;21.00;;;;;;;13.47;68.88;102619.78;5026521;28;20040;-75
2021/11/20 09:56:08;;;;;;;40.13;21.83;;;;;;;13.48;68.71;102614.56;5023664;28;20039;-77
2021/11/20 09:58:46;;;;;;;40.10;20.95;;;;;;;13.54;68.58;102611.28;5041809;28;20071;-76
2021/11/20 10:01:31;;;;;;;39.42;21.15;;;;;;;13.56;68.56;102606.94;5026778;28;20040;-76
2021/11/20 10:04:02;;;;;;;33.53;19.88;;;;;;;13.59;68.39;102601.81;5045186;28;20146;-77
2021/11/20 10:06:50;;;;;;;34.95;19.73;;;;;;;13.64;68.53;102600.19;5037725;28;20321;-76
2021/11/20 10:09:19;;;;;;;35.25;20.40;;;;;;;13.65;68.46;102602.88;5041367;28;20074;-76
2021/11/20 10:12:07;;;;;;;35.28;19.92;;;;;;;13.62;68.33;102594.91;5024278;28;21391;-76
2021/11/20 10:14:35;;;;;;;34.85;19.80;;;;;;;13.67;68.32;102589.78;5031484;28;20101;-76
2021/11/20 10:17:13;;;;;;;31.40;18.63;;;;;;;13.67;68.60;102589.78;5026124;28;20500;-78
2021/11/20 10:19:42;;;;;;;29.63;18.15;;;;;;;13.73;68.24;102588.22;5048036;28;20500;-77
2021/11/20 10:22:19;;;;;;;29.08;18.60;;;;;;;13.75;68.15;102588.28;5038932;28;20518;-76
2021/11/20 10:25:33;;;;;;;28.15;17.67;;;;;;;13.75;68.02;102588.28;5031430;28;20101;-76
2021/11/20 10:28:27;;;;;;;31.98;19.67;;;;;;;13.78;67.87;102577.88;5029098;28;20652;-77
2021/11/20 10:31:04;;;;;;;31.85;19.15;;;;;;;13.75;68.10;102589.16;5041110;28;20088;-76
2021/11/20 10:33:40;;;;;;;33.00;18.73;;;;;;;13.79;68.30;102591.00;5031532;28;20044;-77
2021/11/20 10:36:09;;;;;;;31.50;18.65;;;;;;;13.81;68.22;102584.09;5025035;28;20039;-76
2021/11/20 10:38:49;;;;;;;32.22;18.85;;;;;;;13.81;67.89;102581.47;5038394;28;20387;-77
2021/11/20 10:41:20;;;;;;;29.30;19.17;;;;;;;13.86;67.77;102580.69;5041871;28;20070;-76
2021/11/20 10:43:53;;;;;;;30.33;19.83;;;;;;;13.83;68.27;102581.50;5047802;28;20398;-78
2021/11/20 10:46:27;;;;;;;31.25;18.88;;;;;;;13.85;68.06;102582.41;5025307;28;20040;-78
2021/11/20 10:49:11;;;;;;;;;;;;;;;13.89;68.08;102584.31;5043473;28;20047;-78
2021/11/20 10:51:42;;;;;;;36.53;19.25;;;;;;;13.91;68.48;102568.59;5040183;28;19966;-77
2021/11/20 10:54:32;;;;;;;32.33;18.67;;;;;;;13.97;67.94;102571.38;5018645;28;20040;-75
2021/11/20 10:57:19;;;;;;;31.90;18.70;;;;;;;13.96;68.27;102562.66;5043898;28;20075;-73
2021/11/20 10:59:59;;;;;;;31.80;19.45;;;;;;;13.93;68.43;102559.94;5037611;28;20082;-75
2021/11/20 11:02:46;;;;;;;31.65;19.65;;;;;;;13.88;68.24;102561.53;5019792;28;20486;-76
2021/11/20 11:05:23;;;;;;;35.67;20.48;;;;;;;13.83;68.93;102555.31;5018333;28;20083;-78
2021/11/20 11:08:27;;;;;;;33.05;19.67;;;;;;;13.80;68.96;102545.59;5041517;28;20051;-78
2021/11/20 11:10:56;;;;;;;35.80;19.77;;;;;;;13.85;68.93;102530.00;5036069;28;20083;-77
2021/11/20 11:13:46;;;;;;;35.35;20.65;;;;;;;13.84;68.77;102536.09;5034403;28;20043;-78
2021/11/20 11:16:48;;;;;;;34.35;20.58;;;;;;;13.79;69.02;102530.72;5040130;28;20067;-76
2021/11/20 11:19:38;;;;;;;32.08;19.60;;;;;;;13.78;68.81;102528.94;5046264;28;20032;-74
2021/11/20 11:22:14;;;;;;;37.75;19.88;;;;;;;13.81;68.83;102513.31;5041360;28;20727;-74
2021/11/20 11:24:57;;;;;;;33.95;19.25;;;;;;;13.82;69.13;102519.44;5023810;28;20522;-75